Terminal Aerodrome Forecast
Issued by NWS

Home | Current Version | Previous Version | Text Only | Print | Product List | Glossary Off
Versions: 1 2 3 4 5 6 7 8 9 10 11 12 13 14 15 16 17

794
FTUS43 KFGF 202328
TAFBJI
TAF
KBJI 202328Z 2100/2124 21008KT P6SM SKC
     FM210300 18006KT P6SM SKC
     FM211400 16010KT P6SM FEW250
     FM212000 15013G21KT P6SM FEW250=

USA.gov is the U.S. government's official web portal to all federal, state and local government web resources and services.